Time;durP1;ratioP1;P1;durP2;ratioP2;P2;SDS_P1;SDS_P2;PMS_P1;PMS_P2;Temp;Humidity;BMP_temperature;BMP_pressure;BME280_temperature;BME280_humidity;BME280_pressure;Samples;Min_cycle;Max_cycle;Signal;HPM_P1;HPM_P2
2022/04/10 00:01:23;;;;;;;5.68;3.10;;;5.70;99.90;;;;;;5071081;28;20225;-85
2022/04/10 00:03:51;;;;;;;5.82;3.20;;;5.80;99.90;;;;;;5072583;28;20236;-86
2022/04/10 00:06:17;;;;;;;8.00;3.00;;;5.30;99.90;;;;;;5074918;28;20221;-85
2022/04/10 00:08:44;;;;;;;6.70;2.90;;;5.80;99.90;;;;;;5076080;28;20222;-87
2022/04/10 00:11:11;;;;;;;6.18;3.53;;;5.70;99.90;;;;;;5076312;28;20241;-86
2022/04/10 00:13:38;;;;;;;7.38;3.25;;;5.80;99.90;;;;;;5074590;28;20241;-85
2022/04/10 00:16:08;;;;;;;8.13;3.28;;;5.40;99.90;;;;;;5073961;28;20213;-85
2022/04/10 00:18:36;;;;;;;7.82;3.70;;;5.60;99.90;;;;;;5071718;28;20210;-87
2022/04/10 00:21:03;;;;;;;7.28;2.95;;;5.80;99.90;;;;;;5062984;28;20210;-87
2022/04/10 00:23:30;;;;;;;7.45;3.45;;;5.30;99.90;;;;;;5060296;28;20206;-87
2022/04/10 00:25:57;;;;;;;9.38;4.40;;;5.70;99.90;;;;;;5060157;28;20249;-87
2022/04/10 00:28:24;;;;;;;6.30;3.30;;;5.40;99.90;;;;;;5060450;28;20222;-87
2022/04/10 00:30:51;;;;;;;9.30;3.90;;;5.50;99.90;;;;;;5065489;28;20213;-84
2022/04/10 00:33:20;;;;;;;10.40;3.63;;;5.40;99.90;;;;;;5075940;28;20196;-86
2022/04/10 00:35:47;;;;;;;7.93;3.70;;;5.80;99.90;;;;;;5068970;28;20269;-86
2022/04/10 00:38:14;;;;;;;8.35;3.30;;;5.40;99.90;;;;;;5068407;28;20209;-88
2022/04/10 00:40:41;;;;;;;7.15;4.00;;;5.70;99.90;;;;;;5067082;28;20210;-86
2022/04/10 00:43:08;;;;;;;5.97;3.33;;;5.80;99.90;;;;;;5065692;28;20213;-87
2022/04/10 00:45:35;;;;;;;7.53;4.22;;;5.80;99.90;;;;;;5068629;28;20221;-86
2022/04/10 00:48:02;;;;;;;6.05;3.80;;;6.00;99.90;;;;;;5066935;28;20269;-86
2022/04/10 00:50:33;;;;;;;7.82;3.33;;;5.70;99.90;;;;;;5067084;28;20244;-86
2022/04/10 00:52:59;;;;;;;7.53;3.25;;;5.60;99.90;;;;;;5065162;28;20197;-85
2022/04/10 00:55:27;;;;;;;5.68;2.75;;;5.50;99.90;;;;;;5063506;28;20745;-87
2022/04/10 00:57:54;;;;;;;7.53;3.72;;;5.60;99.90;;;;;;5060845;28;20296;-86
2022/04/10 01:00:21;;;;;;;8.18;3.90;;;5.90;99.90;;;;;;5059791;28;20715;-87
2022/04/10 01:02:48;;;;;;;7.00;3.90;;;5.80;99.90;;;;;;5060745;28;20222;-87
2022/04/10 01:05:14;;;;;;;5.50;3.22;;;5.50;99.90;;;;;;5059709;28;20269;-87
2022/04/10 01:07:43;;;;;;;10.38;3.90;;;5.80;99.90;;;;;;5060042;28;20237;-87
2022/04/10 01:10:10;;;;;;;6.93;3.28;;;5.70;99.90;;;;;;5059449;28;20232;-85
2022/04/10 01:12:36;;;;;;;7.80;4.05;;;5.40;99.90;;;;;;5061436;28;20233;-86
2022/04/10 01:15:05;;;;;;;8.20;3.42;;;5.60;99.90;;;;;;5071138;28;20193;-86
2022/04/10 01:17:33;;;;;;;7.15;3.47;;;5.60;99.90;;;;;;5068902;28;20279;-87
2022/04/10 01:20:01;;;;;;;6.53;3.20;;;5.40;99.90;;;;;;5059649;28;20236;-86
2022/04/10 01:22:32;;;;;;;6.88;3.28;;;5.70;99.90;;;;;;5068020;28;20267;-86
2022/04/10 01:25:00;;;;;;;7.95;3.50;;;5.70;99.90;;;;;;5060655;28;20194;-85
2022/04/10 01:27:27;;;;;;;6.78;3.50;;;5.60;99.90;;;;;;5059338;28;20713;-86
2022/04/10 01:29:54;;;;;;;4.65;3.25;;;5.60;99.90;;;;;;5059320;28;20268;-87
2022/04/10 01:32:21;;;;;;;7.55;3.30;;;5.70;99.90;;;;;;5060882;28;20214;-86
2022/04/10 01:34:49;;;;;;;7.32;5.22;;;5.60;99.90;;;;;;5063083;28;20622;-87
2022/04/10 01:37:18;;;;;;;11.15;2.92;;;5.60;99.90;;;;;;5062824;28;20634;-86
2022/04/10 01:39:46;;;;;;;6.43;3.33;;;5.30;99.90;;;;;;5063367;28;20741;-87
2022/04/10 01:42:13;;;;;;;4.85;3.08;;;5.70;99.90;;;;;;5067809;28;20254;-87
2022/04/10 01:44:42;;;;;;;8.35;3.58;;;5.30;99.90;;;;;;5071239;28;20557;-86
2022/04/10 01:47:09;;;;;;;10.13;3.83;;;5.70;99.90;;;;;;5063447;28;20686;-87
2022/04/10 01:49:36;;;;;;;6.10;3.80;;;5.20;99.90;;;;;;5068013;28;20237;-86
2022/04/10 01:52:06;;;;;;;5.10;2.60;;;5.70;99.90;;;;;;5074707;28;20217;-87
2022/04/10 01:54:33;;;;;;;6.47;3.80;;;5.70;99.90;;;;;;5064292;28;20237;-87
2022/04/10 01:57:01;;;;;;;6.20;4.03;;;5.80;99.90;;;;;;5064524;28;20198;-88
2022/04/10 01:59:29;;;;;;;7.10;3.92;;;5.70;99.90;;;;;;5064427;28;20226;-85
2022/04/10 02:01:56;;;;;;;6.40;3.55;;;5.40;99.90;;;;;;5068282;28;20217;-87
2022/04/10 02:04:24;;;;;;;5.25;3.20;;;5.60;99.90;;;;;;5065943;28;20309;-87
2022/04/10 02:06:50;;;;;;;9.13;3.50;;;5.40;99.90;;;;;;5063673;28;20260;-87
2022/04/10 02:09:18;;;;;;;6.38;2.95;;;5.70;99.90;;;;;;5064978;28;20301;-86
2022/04/10 02:11:44;;;;;;;6.10;3.30;;;5.70;99.90;;;;;;5062998;28;20220;-87
2022/04/10 02:14:13;;;;;;;6.40;3.15;;;5.60;99.90;;;;;;5062808;28;20399;-86
2022/04/10 02:16:39;;;;;;;8.77;3.25;;;5.60;99.90;;;;;;5063296;28;20234;-87
2022/04/10 02:19:06;;;;;;;9.07;3.13;;;5.20;99.90;;;;;;5063101;28;20244;-87
2022/04/10 02:21:33;;;;;;;10.05;4.15;;;5.60;99.90;;;;;;5062351;28;20289;-87
2022/04/10 02:24:00;;;;;;;6.55;3.00;;;5.30;99.90;;;;;;5072025;28;20273;-84
2022/04/10 02:26:27;;;;;;;6.90;3.03;;;5.10;99.90;;;;;;5079630;28;20279;-86
2022/04/10 02:28:54;;;;;;;8.30;3.17;;;5.50;99.90;;;;;;5067938;28;20226;-86
2022/04/10 02:31:22;;;;;;;6.30;3.20;;;5.70;99.90;;;;;;5063302;28;20239;-86
2022/04/10 02:33:49;;;;;;;6.88;3.78;;;5.70;99.90;;;;;;5079108;28;20194;-86
2022/04/10 02:36:16;;;;;;;10.43;4.05;;;5.50;99.90;;;;;;5070890;28;20313;-87
2022/04/10 02:38:44;;;;;;;5.53;2.83;;;5.20;99.90;;;;;;5067143;28;20238;-87
2022/04/10 02:41:11;;;;;;;5.85;3.35;;;5.10;99.90;;;;;;5070207;28;20194;-87
2022/04/10 02:43:39;;;;;;;5.15;3.22;;;5.50;99.90;;;;;;5070631;28;20221;-86
2022/04/10 02:46:06;;;;;;;7.30;3.15;;;5.30;99.90;;;;;;5075634;28;20218;-87
2022/04/10 02:48:36;;;;;;;4.35;3.00;;;5.00;99.90;;;;;;5075884;28;20234;-87
2022/04/10 02:51:03;;;;;;;5.50;3.28;;;5.20;99.90;;;;;;5071538;28;20237;-86
2022/04/10 02:53:30;;;;;;;6.95;3.63;;;5.30;99.90;;;;;;5073467;28;20250;-87
2022/04/10 02:55:57;;;;;;;4.80;3.42;;;5.30;99.90;;;;;;5066764;28;20206;-86
2022/04/10 02:58:24;;;;;;;5.40;2.80;;;4.90;99.90;;;;;;5064023;28;20316;-86
2022/04/10 03:00:51;;;;;;;7.88;3.42;;;5.10;99.90;;;;;;5062537;28;20217;-86
2022/04/10 03:03:18;;;;;;;6.05;3.00;;;4.80;99.90;;;;;;5062735;28;20365;-86
2022/04/10 03:05:46;;;;;;;5.18;3.50;;;4.80;99.90;;;;;;5061631;28;20681;-87
2022/04/10 03:08:13;;;;;;;8.20;4.80;;;5.00;99.90;;;;;;5061393;28;20297;-86
2022/04/10 03:10:40;;;;;;;9.35;4.20;;;5.00;99.90;;;;;;5061029;28;20209;-84
2022/04/10 03:13:07;;;;;;;9.50;3.55;;;4.60;99.90;;;;;;5064253;28;20267;-86
2022/04/10 03:15:34;;;;;;;8.90;3.42;;;4.60;99.90;;;;;;5066071;28;20198;-86
2022/04/10 03:18:02;;;;;;;7.60;4.63;;;5.00;99.90;;;;;;5069865;28;20233;-87
2022/04/10 03:20:29;;;;;;;6.85;3.90;;;4.90;99.90;;;;;;5062561;28;20206;-86
2022/04/10 03:22:57;;;;;;;10.50;3.60;;;4.50;99.90;;;;;;5062111;28;20310;-87
2022/04/10 03:25:24;;;;;;;8.00;3.35;;;5.00;99.90;;;;;;5061798;28;20206;-86
2022/04/10 03:27:51;;;;;;;7.32;3.63;;;5.00;99.90;;;;;;5068615;28;20252;-86
2022/04/10 03:30:18;;;;;;;6.97;3.50;;;4.80;99.90;;;;;;5062038;28;20246;-86
2022/04/10 03:32:45;;;;;;;7.00;4.13;;;4.90;99.90;;;;;;5073638;28;20234;-86
2022/04/10 03:35:14;;;;;;;6.80;3.65;;;4.70;99.90;;;;;;5077448;28;20214;-85
2022/04/10 03:37:43;;;;;;;6.50;4.13;;;4.70;99.90;;;;;;5076960;28;20206;-86
2022/04/10 03:40:13;;;;;;;6.35;4.30;;;4.30;99.90;;;;;;5065050;28;20744;-87
2022/04/10 03:42:40;;;;;;;7.65;3.40;;;4.60;99.90;;;;;;5062046;28;20296;-87
2022/04/10 03:45:09;;;;;;;5.88;3.80;;;4.20;99.90;;;;;;5060920;28;20210;-86
2022/04/10 03:47:36;;;;;;;6.70;4.10;;;4.80;99.90;;;;;;5066093;28;20257;-87
2022/04/10 03:50:04;;;;;;;7.88;4.00;;;4.60;99.90;;;;;;5077960;28;20269;-84
2022/04/10 03:52:31;;;;;;;7.78;4.53;;;4.40;99.90;;;;;;5076369;28;20210;-87
2022/04/10 03:54:58;;;;;;;7.78;4.40;;;4.50;99.90;;;;;;5064350;28;20612;-87
2022/04/10 03:57:26;;;;;;;7.15;4.18;;;4.40;99.90;;;;;;5061325;28;20278;-86
2022/04/10 03:59:53;;;;;;;7.43;3.83;;;4.60;99.90;;;;;;5065880;28;20253;-86
2022/04/10 04:02:22;;;;;;;9.68;5.13;;;4.50;99.90;;;;;;5066415;28;20743;-86
2022/04/10 04:04:50;;;;;;;6.80;4.40;;;4.40;99.90;;;;;;5060764;28;20206;-87
2022/04/10 04:07:16;;;;;;;6.22;3.90;;;4.50;99.90;;;;;;5062845;28;20261;-86
2022/04/10 04:09:43;;;;;;;9.63;4.72;;;4.00;99.90;;;;;;5059756;28;20258;-87
2022/04/10 04:12:11;;;;;;;9.23;5.30;;;4.40;99.90;;;;;;5062960;28;20245;-86
2022/04/10 04:14:39;;;;;;;8.57;4.28;;;4.50;99.90;;;;;;5060542;28;20218;-86
2022/04/10 04:17:06;;;;;;;6.28;4.78;;;4.80;99.90;;;;;;5059403;28;20209;-86
2022/04/10 04:19:33;;;;;;;9.57;4.40;;;4.70;99.90;;;;;;5059274;28;20230;-86
2022/04/10 04:22:00;;;;;;;7.28;5.40;;;4.20;99.90;;;;;;5059793;28;20722;-86
2022/04/10 04:24:27;;;;;;;7.32;4.50;;;4.70;99.90;;;;;;5061265;28;20234;-84
2022/04/10 04:26:53;;;;;;;7.03;4.15;;;4.70;99.90;;;;;;5059945;28;20228;-85
2022/04/10 04:29:20;;;;;;;6.47;4.68;;;4.60;99.90;;;;;;5059732;28;20291;-87
2022/04/10 04:31:48;;;;;;;9.68;5.22;;;4.80;99.90;;;;;;5059731;28;20204;-85
2022/04/10 04:34:16;;;;;;;7.07;5.00;;;5.00;99.90;;;;;;5060959;28;20289;-86
2022/04/10 04:36:43;;;;;;;9.10;5.22;;;4.80;99.90;;;;;;5060137;28;20232;-86
2022/04/10 04:39:10;;;;;;;8.43;5.10;;;4.90;99.90;;;;;;5059543;28;20226;-86
2022/04/10 04:41:37;;;;;;;6.55;4.85;;;5.10;99.90;;;;;;5060293;28;20576;-87
2022/04/10 04:44:04;;;;;;;8.77;4.65;;;4.80;99.90;;;;;;5060752;28;20216;-87
2022/04/10 04:46:31;;;;;;;7.15;5.28;;;5.00;99.90;;;;;;5062522;28;20270;-87
2022/04/10 04:48:59;;;;;;;7.95;5.00;;;5.10;99.90;;;;;;5062477;28;20233;-87
2022/04/10 04:51:26;;;;;;;9.63;5.10;;;5.20;99.90;;;;;;5061765;28;20269;-87
2022/04/10 04:53:53;;;;;;;8.27;6.28;;;5.00;99.90;;;;;;5060351;28;20289;-85
2022/04/10 04:56:20;;;;;;;10.23;5.80;;;4.50;99.90;;;;;;5060600;28;20206;-86
2022/04/10 04:58:48;;;;;;;9.15;4.93;;;4.50;99.90;;;;;;5064294;28;20229;-86
2022/04/10 05:01:15;;;;;;;10.13;5.50;;;4.50;99.90;;;;;;5075927;28;20210;-86
2022/04/10 05:03:41;;;;;;;8.90;4.70;;;4.60;99.90;;;;;;5066319;28;20226;-87
2022/04/10 05:06:10;;;;;;;6.43;4.47;;;5.10;99.90;;;;;;5070058;28;20209;-87
2022/04/10 05:08:37;;;;;;;8.35;5.22;;;4.70;99.90;;;;;;5075214;28;20272;-87
2022/04/10 05:11:03;;;;;;;7.97;5.13;;;5.20;99.90;;;;;;5077262;28;20225;-87
2022/04/10 05:13:30;;;;;;;7.93;4.93;;;5.30;99.90;;;;;;5073884;28;20265;-84
2022/04/10 05:15:57;;;;;;;8.00;4.72;;;5.00;99.90;;;;;;5081239;28;20206;-87
2022/04/10 05:18:24;;;;;;;6.80;5.13;;;5.50;99.90;;;;;;5073751;28;20659;-86
2022/04/10 05:20:51;;;;;;;10.10;5.38;;;5.60;99.90;;;;;;5066981;28;20273;-86
2022/04/10 05:23:21;;;;;;;8.00;4.80;;;5.80;99.90;;;;;;5066864;28;20205;-86
2022/04/10 05:25:48;;;;;;;7.25;5.38;;;5.70;99.90;;;;;;5069968;28;20210;-86
2022/04/10 05:28:15;;;;;;;8.93;5.30;;;5.10;99.90;;;;;;5070931;28;20322;-86
2022/04/10 05:30:43;;;;;;;9.10;4.90;;;5.70;99.90;;;;;;5068615;28;20206;-86
2022/04/10 05:33:10;;;;;;;9.27;5.03;;;5.70;99.90;;;;;;5070397;28;20206;-86
2022/04/10 05:35:37;;;;;;;7.97;5.78;;;5.70;99.90;;;;;;5066672;28;20206;-86
2022/04/10 05:38:04;;;;;;;8.13;5.18;;;5.80;99.90;;;;;;5073978;28;20202;-85
2022/04/10 05:40:33;;;;;;;11.15;6.00;;;5.70;99.90;;;;;;5074600;28;20534;-85
2022/04/10 05:43:00;;;;;;;8.60;5.05;;;5.70;99.90;;;;;;5068876;28;20217;-87
2022/04/10 05:45:27;;;;;;;6.88;4.80;;;5.90;99.90;;;;;;5066014;28;20269;-86
2022/04/10 05:47:54;;;;;;;8.40;5.15;;;5.80;99.90;;;;;;5064583;28;20230;-86
2022/04/10 06:09:48;;;;;;;7.85;5.10;;;5.70;99.90;;;;;;4898031;29;20705;-83
2022/04/10 06:28:50;;;;;;;6.80;4.30;;;6.90;99.90;;;;;;5007284;28;20264;-83
2022/04/10 07:05:37;;;;;;;6.78;4.20;;;7.70;99.90;;;;;;4845745;29;20226;-85
2022/04/10 07:28:56;;;;;;;7.70;4.03;;;8.30;99.90;;;;;;5067415;28;20289;-85
2022/04/10 07:55:01;;;;;;;5.95;3.30;;;8.90;99.90;;;;;;4970701;28;20944;-85
2022/04/10 08:23:26;;;;;;;;;;;;;;;;;;;;;
2022/04/10 08:30:03;;;;;;;9.55;4.38;;;9.50;99.80;;;;;;5018681;28;20503;-84
2022/04/10 09:49:54;;;;;;;;;;;;;;;;;;;;;
2022/04/10 10:10:38;;;;;;;5.47;3.03;;;9.80;91.70;;;;;;4906017;29;20497;-83
2022/04/10 10:27:45;;;;;;;5.33;3.07;;;10.30;90.00;;;;;;4961256;28;20489;-85
2022/04/10 11:23:49;;;;;;;5.13;3.42;;;9.50;94.70;;;;;;4934510;29;20250;-84
2022/04/10 11:34:06;;;;;;;;;;;;;;;;;;;;;
2022/04/10 11:54:17;;;;;;;7.40;3.87;;;10.00;93.80;;;;;;5028863;22;20536;-85
2022/04/10 11:56:44;;;;;;;7.00;3.78;;;10.00;93.90;;;;;;5046758;28;20495;-86
2022/04/10 11:59:11;;;;;;;6.50;3.57;;;10.20;93.60;;;;;;5044815;28;20237;-86
2022/04/10 12:01:42;;;;;;;5.03;3.43;;;10.20;93.30;;;;;;5046354;28;20449;-85
2022/04/10 12:04:11;;;;;;;8.00;3.53;;;10.50;93.20;;;;;;5049095;28;20464;-85
2022/04/10 12:06:42;;;;;;;6.43;4.10;;;10.50;92.40;;;;;;5044005;28;20482;-85
2022/04/10 12:09:11;;;;;;;6.17;3.50;;;10.50;92.40;;;;;;5041867;28;20503;-86
2022/04/10 12:11:39;;;;;;;6.20;3.60;;;10.50;91.80;;;;;;5039831;28;20445;-86
2022/04/10 12:14:19;;;;;;;12.17;4.03;;;10.30;92.00;;;;;;5043471;28;20457;-87
2022/04/10 12:16:46;;;;;;;8.77;3.80;;;10.20;93.10;;;;;;5043731;28;20437;-87
2022/04/10 12:19:13;;;;;;;5.60;3.30;;;10.20;93.30;;;;;;5045386;28;20695;-86
2022/04/10 12:21:49;;;;;;;10.17;3.67;;;10.50;92.30;;;;;;5041533;28;20449;-87
2022/04/10 12:24:21;;;;;;;7.83;4.13;;;10.60;92.80;;;;;;5041069;28;20469;-86
2022/04/10 12:26:49;;;;;;;4.30;2.70;;;10.40;90.30;;;;;;5044021;28;20965;-86
2022/04/10 12:29:17;;;;;;;5.80;2.57;;;10.50;90.00;;;;;;5046874;28;20481;-86
2022/04/10 12:31:45;;;;;;;4.90;2.10;;;10.50;90.20;;;;;;5042074;28;20548;-84
2022/04/10 12:34:15;;;;;;;6.10;3.50;;;10.40;91.10;;;;;;5053838;28;20526;-85
2022/04/10 12:36:47;;;;;;;4.83;2.63;;;10.60;91.30;;;;;;5056776;28;20437;-85
2022/04/10 12:39:25;;;;;;;6.30;2.80;;;10.80;90.70;;;;;;5044643;28;20520;-87
2022/04/10 12:42:00;;;;;;;4.27;2.20;;;11.10;91.00;;;;;;5048930;28;20441;-86
2022/04/10 12:44:28;;;;;;;7.67;3.37;;;11.00;91.80;;;;;;5049981;28;20450;-85
2022/04/10 12:46:55;;;;;;;7.20;3.97;;;10.80;92.80;;;;;;5051505;28;20446;-86
2022/04/10 12:49:24;;;;;;;7.10;3.23;;;10.50;93.70;;;;;;5049291;28;20541;-86
2022/04/10 12:51:55;;;;;;;6.23;3.80;;;10.50;94.20;;;;;;5044326;28;20441;-85
2022/04/10 12:54:38;;;;;;;6.47;3.80;;;10.40;94.80;;;;;;5042876;28;20489;-85
2022/04/10 12:57:08;;;;;;;7.80;3.77;;;10.50;93.80;;;;;;5048271;28;20446;-85
2022/04/10 12:59:44;;;;;;;7.93;3.50;;;10.60;93.00;;;;;;5053126;28;20421;-88
2022/04/10 13:02:21;;;;;;;4.10;2.43;;;10.70;93.30;;;;;;5054202;28;20819;-85
2022/04/10 13:04:54;;;;;;;9.77;4.97;;;10.40;94.40;;;;;;5052402;28;20469;-86
2022/04/10 13:07:28;;;;;;;6.13;3.83;;;10.50;95.20;;;;;;5045991;28;20441;-85
2022/04/10 13:10:08;;;;;;;6.17;3.00;;;10.50;94.60;;;;;;5040237;28;20505;-86
2022/04/10 13:12:37;;;;;;;6.20;3.20;;;10.50;93.70;;;;;;5041432;28;20477;-87
2022/04/10 13:15:05;;;;;;;7.60;3.73;;;10.60;92.90;;;;;;5041413;28;20535;-86
2022/04/10 13:17:33;;;;;;;9.13;2.90;;;10.70;93.60;;;;;;5041563;28;20844;-86
2022/04/10 13:20:05;;;;;;;5.10;2.90;;;10.50;92.60;;;;;;5040663;28;20450;-87
2022/04/10 13:22:33;;;;;;;10.00;3.60;;;10.40;93.80;;;;;;5040632;28;20466;-85
2022/04/10 13:25:00;;;;;;;6.63;3.23;;;10.50;94.10;;;;;;5040060;28;20584;-86
2022/04/10 13:27:28;;;;;;;8.30;3.10;;;10.50;94.40;;;;;;5040764;28;20459;-87
2022/04/10 13:29:55;;;;;;;4.63;3.10;;;10.50;94.30;;;;;;5044723;28;20564;-87
2022/04/10 13:32:22;;;;;;;6.53;3.15;;;10.50;94.30;;;;;;5045290;28;20509;-84
2022/04/10 13:34:49;;;;;;;5.53;3.40;;;10.20;94.60;;;;;;5045338;28;20227;-85
2022/04/10 13:37:16;;;;;;;5.30;3.63;;;10.40;94.50;;;;;;5046711;28;20210;-85
2022/04/10 13:39:43;;;;;;;7.10;3.37;;;10.50;95.30;;;;;;5048084;28;20453;-88
2022/04/10 13:42:10;;;;;;;8.27;3.33;;;10.70;94.90;;;;;;5047068;28;20511;-87
2022/04/10 13:44:38;;;;;;;7.37;4.30;;;10.80;94.90;;;;;;5049005;28;20493;-88
2022/04/10 13:47:05;;;;;;;10.40;4.07;;;10.80;95.30;;;;;;5047131;28;20544;-87
2022/04/10 13:49:32;;;;;;;14.73;5.03;;;10.50;95.40;;;;;;5047667;28;20481;-88
2022/04/10 13:52:01;;;;;;;7.83;3.33;;;10.30;96.00;;;;;;5047168;28;20203;-85
2022/04/10 13:54:28;;;;;;;8.23;4.27;;;10.60;95.90;;;;;;5047232;28;20477;-87
2022/04/10 13:56:55;;;;;;;8.60;3.60;;;10.80;95.50;;;;;;5047162;28;20511;-87
2022/04/10 13:59:22;;;;;;;5.10;3.07;;;10.70;95.20;;;;;;5052154;28;20458;-86
2022/04/10 14:01:50;;;;;;;5.78;2.75;;;10.40;95.70;;;;;;5056907;28;20453;-86
2022/04/10 14:04:17;;;;;;;6.13;3.70;;;9.90;97.30;;;;;;5057950;28;20222;-86
2022/04/10 14:06:44;;;;;;;4.50;2.60;;;9.90;97.50;;;;;;5048840;28;20433;-87
2022/04/10 14:09:11;;;;;;;5.00;3.53;;;10.10;97.80;;;;;;5049710;28;20503;-88
2022/04/10 14:11:38;;;;;;;5.33;3.40;;;10.20;98.20;;;;;;5047394;28;20459;-86
2022/04/10 14:14:05;;;;;;;5.03;3.57;;;10.50;98.10;;;;;;5046010;28;20464;-87
2022/04/10 14:16:33;;;;;;;5.17;3.37;;;10.70;96.70;;;;;;5054371;28;20452;-87
2022/04/10 14:19:01;;;;;;;6.07;3.23;;;10.90;96.50;;;;;;5059650;28;20434;-86
2022/04/10 14:21:30;;;;;;;4.73;2.80;;;11.10;95.80;;;;;;5053234;28;20563;-86
2022/04/10 14:23:57;;;;;;;9.73;3.57;;;11.10;95.00;;;;;;5046430;28;20450;-87
2022/04/10 14:26:24;;;;;;;6.17;3.17;;;11.00;95.10;;;;;;5046025;28;20576;-86
2022/04/10 14:28:51;;;;;;;6.20;3.10;;;10.80;94.30;;;;;;5046312;28;20552;-87
2022/04/10 14:31:18;;;;;;;5.77;3.20;;;10.70;94.30;;;;;;5044876;28;20544;-85
2022/04/10 14:33:45;;;;;;;6.33;3.17;;;10.90;94.00;;;;;;5043735;28;20453;-86
2022/04/10 14:36:13;;;;;;;6.10;3.10;;;11.00;93.50;;;;;;5044066;28;20481;-85
2022/04/10 14:38:43;;;;;;;5.40;3.10;;;11.10;93.10;;;;;;5043681;28;20887;-86
2022/04/10 14:41:10;;;;;;;7.97;2.70;;;10.90;93.50;;;;;;5043731;28;20454;-85
2022/04/10 14:43:38;;;;;;;5.40;2.83;;;10.80;93.70;;;;;;5048151;28;20450;-85
2022/04/10 14:46:05;;;;;;;5.73;3.40;;;11.00;93.30;;;;;;5044142;28;20473;-85
2022/04/10 14:48:32;;;;;;;5.60;3.07;;;11.20;93.20;;;;;;5044518;28;20507;-86
2022/04/10 14:50:59;;;;;;;7.93;3.50;;;11.40;92.20;;;;;;5045102;28;20527;-86
2022/04/10 14:53:29;;;;;;;4.57;2.77;;;11.70;91.40;;;;;;5046276;28;20508;-86
2022/04/10 14:55:56;;;;;;;4.67;2.80;;;12.10;90.60;;;;;;5051858;28;20561;-86
2022/04/10 14:58:23;;;;;;;5.50;2.43;;;12.30;90.00;;;;;;5054317;28;20453;-86
2022/04/10 15:00:53;;;;;;;6.87;2.70;;;12.50;88.60;;;;;;5054075;28;20449;-86
2022/04/10 15:03:21;;;;;;;5.60;2.80;;;12.40;87.50;;;;;;5049376;28;20506;-84
2022/04/10 15:05:48;;;;;;;5.53;2.80;;;12.30;86.90;;;;;;5043126;28;20488;-84
2022/04/10 15:08:15;;;;;;;5.57;2.97;;;12.00;87.30;;;;;;5043896;28;20457;-85
2022/04/10 15:10:45;;;;;;;4.20;3.03;;;11.90;88.60;;;;;;5047646;28;20545;-87
2022/04/10 15:13:21;;;;;;;5.30;4.00;;;11.70;90.20;;;;;;5048856;28;20464;-87
2022/04/10 15:15:48;;;;;;;7.50;3.87;;;11.60;92.00;;;;;;5051078;28;20504;-85
2022/04/10 15:18:16;;;;;;;9.43;3.77;;;11.40;93.20;;;;;;5051489;28;20442;-88
2022/04/10 15:20:45;;;;;;;6.97;3.50;;;11.40;93.10;;;;;;5050524;28;20524;-86
2022/04/10 15:23:11;;;;;;;6.43;3.20;;;11.40;92.80;;;;;;5044025;28;20532;-88
2022/04/10 15:25:39;;;;;;;7.07;4.40;;;11.20;93.50;;;;;;5047889;28;20440;-87
2022/04/10 15:28:07;;;;;;;7.20;4.33;;;11.10;94.20;;;;;;5047337;28;20453;-87
2022/04/10 15:30:34;;;;;;;5.40;4.10;;;10.90;94.30;;;;;;5045860;28;20486;-87
2022/04/10 15:33:01;;;;;;;5.80;3.67;;;10.90;94.60;;;;;;5044868;28;20954;-87
2022/04/10 15:35:28;;;;;;;8.07;4.17;;;11.00;94.50;;;;;;5043498;28;20568;-87
2022/04/10 15:37:55;;;;;;;7.80;4.13;;;11.00;94.50;;;;;;5047745;28;20497;-86
2022/04/10 15:40:28;;;;;;;7.23;3.73;;;11.00;94.00;;;;;;5052276;28;20980;-88
2022/04/10 15:42:56;;;;;;;9.80;4.30;;;11.00;93.50;;;;;;5044597;28;20480;-89
2022/04/10 15:45:26;;;;;;;5.50;3.50;;;11.00;93.70;;;;;;5043604;28;20482;-87
2022/04/10 15:47:54;;;;;;;8.60;4.40;;;10.90;93.70;;;;;;5041917;28;20449;-88
2022/04/10 15:50:21;;;;;;;6.03;4.00;;;10.90;94.50;;;;;;5043307;28;20497;-88
2022/04/10 15:52:49;;;;;;;6.70;5.03;;;10.90;95.20;;;;;;5055540;28;20473;-88
2022/04/10 15:55:18;;;;;;;6.57;4.10;;;10.90;95.20;;;;;;5054376;28;20452;-89
2022/04/10 15:57:47;;;;;;;8.60;5.13;;;10.80;95.60;;;;;;5056481;28;20430;-88
2022/04/10 16:00:15;;;;;;;5.77;3.80;;;10.70;96.20;;;;;;5057393;28;20437;-85
2022/04/10 16:02:45;;;;;;;5.70;3.77;;;10.70;96.10;;;;;;5051817;28;20449;-87
2022/04/10 16:05:12;;;;;;;6.10;3.90;;;10.70;95.80;;;;;;5043514;28;20489;-87
2022/04/10 16:07:39;;;;;;;7.10;4.67;;;10.70;95.90;;;;;;5041380;28;20450;-87
2022/04/10 16:10:09;;;;;;;7.43;4.30;;;10.70;96.20;;;;;;5044032;28;20489;-88
2022/04/10 16:12:38;;;;;;;10.27;4.17;;;10.70;96.40;;;;;;5044805;28;20548;-89
2022/04/10 16:15:10;;;;;;;8.77;5.23;;;10.70;96.90;;;;;;5049189;28;20462;-88
2022/04/10 16:17:38;;;;;;;8.70;4.77;;;10.60;97.40;;;;;;5044476;28;20510;-88
2022/04/10 16:20:14;;;;;;;9.93;5.05;;;10.60;97.90;;;;;;5050646;28;20438;-90
2022/04/10 16:22:42;;;;;;;6.33;3.80;;;10.50;98.00;;;;;;5056126;28;20771;-88
2022/04/10 16:25:10;;;;;;;7.15;4.60;;;10.40;98.00;;;;;;5044393;28;20999;-87
2022/04/10 16:30:22;;;;;;;7.07;4.23;;;10.40;97.70;;;;;;5048080;28;20265;-88
2022/04/10 16:32:51;;;;;;;6.90;4.70;;;10.40;97.70;;;;;;5047545;28;20461;-89
2022/04/10 16:35:22;;;;;;;7.97;4.37;;;10.50;98.10;;;;;;5048863;28;20473;-88
2022/04/10 16:37:51;;;;;;;7.13;4.70;;;10.40;97.70;;;;;;5054443;28;20456;-88
2022/04/10 16:40:19;;;;;;;9.10;3.77;;;10.20;98.40;;;;;;5051187;28;20456;-88
2022/04/10 16:42:47;;;;;;;6.40;4.40;;;10.30;98.40;;;;;;5049557;28;20447;-87
2022/04/10 16:45:14;;;;;;;11.80;4.17;;;10.30;98.10;;;;;;5048509;28;20226;-87
2022/04/10 16:47:41;;;;;;;6.40;4.03;;;10.30;98.40;;;;;;5048600;28;20893;-88
2022/04/10 16:50:12;;;;;;;7.50;3.75;;;10.30;99.70;;;;;;5042494;28;20222;-88
2022/04/10 16:52:47;;;;;;;10.98;5.20;;;10.30;99.90;;;;;;5042701;28;20198;-86
2022/04/10 16:55:14;;;;;;;6.87;4.07;;;10.30;99.90;;;;;;5041863;28;20792;-89
2022/04/10 16:57:43;;;;;;;7.70;4.90;;;10.10;99.90;;;;;;5054394;28;20469;-89
2022/04/10 17:00:17;;;;;;;10.40;4.50;;;10.20;99.90;;;;;;5050730;28;20473;-88
2022/04/10 17:02:47;;;;;;;10.20;4.63;;;10.20;99.90;;;;;;5043950;28;20197;-87
2022/04/10 17:05:17;;;;;;;8.00;4.40;;;10.20;99.90;;;;;;5042294;28;20465;-89
2022/04/10 17:07:55;;;;;;;6.53;4.15;;;10.20;99.90;;;;;;5042405;28;20442;-88
2022/04/10 17:10:23;;;;;;;7.70;4.30;;;10.10;99.90;;;;;;5045571;28;20223;-87
2022/04/10 17:12:51;;;;;;;8.20;5.40;;;10.00;99.90;;;;;;5046383;28;20581;-86
2022/04/10 17:15:18;;;;;;;7.80;4.77;;;9.90;99.90;;;;;;5041302;28;20465;-88
2022/04/10 17:17:54;;;;;;;11.88;5.97;;;9.80;99.90;;;;;;5042916;28;20457;-88
2022/04/10 17:20:23;;;;;;;6.40;4.33;;;9.80;99.90;;;;;;5043858;28;20203;-89
2022/04/10 17:22:51;;;;;;;10.00;5.17;;;9.90;99.90;;;;;;5043381;28;20449;-88
2022/04/10 17:25:18;;;;;;;11.48;4.88;;;9.90;99.90;;;;;;5042786;28;20450;-87
2022/04/10 17:27:47;;;;;;;7.10;5.30;;;9.90;99.90;;;;;;5042820;28;20237;-87
2022/04/10 17:30:14;;;;;;;10.32;4.70;;;9.80;99.90;;;;;;5044208;28;20575;-88
2022/04/10 17:32:41;;;;;;;6.93;4.60;;;9.70;99.90;;;;;;5051837;28;20203;-86
2022/04/10 17:35:08;;;;;;;7.40;4.68;;;9.60;99.90;;;;;;5056413;28;20210;-88
2022/04/10 17:37:35;;;;;;;8.55;4.88;;;9.50;99.90;;;;;;5052041;28;20234;-88
2022/04/10 17:40:04;;;;;;;6.00;4.25;;;9.50;99.90;;;;;;5049311;28;20202;-87
2022/04/10 17:42:31;;;;;;;7.53;4.90;;;9.50;99.90;;;;;;5045550;28;20206;-89
2022/04/10 17:44:58;;;;;;;7.95;4.70;;;9.50;99.90;;;;;;5042601;28;20723;-88
2022/04/10 17:47:25;;;;;;;7.95;4.70;;;9.40;99.90;;;;;;5041350;28;20230;-88
2022/04/10 17:49:52;;;;;;;6.40;3.80;;;9.40;99.90;;;;;;5041106;28;20234;-88
2022/04/10 17:52:19;;;;;;;7.00;3.95;;;9.60;99.90;;;;;;5041387;28;20203;-88
2022/04/10 17:54:46;;;;;;;6.63;4.07;;;9.40;99.90;;;;;;5042173;28;20294;-88
2022/04/10 19:01:54;;;;;;;7.80;5.13;;;8.40;99.90;;;;;;4921310;29;20283;-84
2022/04/10 19:15:28;;;;;;;7.97;4.03;;;8.30;99.90;;;;;;5018154;28;20242;-85
2022/04/10 19:28:49;;;;;;;9.80;6.45;;;8.00;99.90;;;;;;5066997;28;20228;-85
2022/04/10 19:31:56;;;;;;;11.10;6.40;;;7.90;99.90;;;;;;5010835;28;20231;-83
2022/04/10 20:09:32;;;;;;;8.95;5.20;;;7.40;99.90;;;;;;4981504;28;20235;-83
2022/04/10 20:15:40;;;;;;;9.90;5.60;;;7.20;99.90;;;;;;4970775;28;20368;-84
2022/04/10 20:31:56;;;;;;;10.02;5.80;;;7.00;99.90;;;;;;4960247;28;20244;-83
2022/04/10 20:34:37;;;;;;;11.13;6.38;;;7.00;99.90;;;;;;4980723;28;20211;-83
2022/04/10 20:37:24;;;;;;;11.15;6.75;;;7.00;99.90;;;;;;5029670;28;20213;-84
2022/04/10 20:40:25;;;;;;;10.45;7.43;;;6.80;99.90;;;;;;5067650;28;20225;-84
2022/04/10 21:05:58;;;;;;;9.05;6.45;;;6.70;99.90;;;;;;5039843;28;20626;-82
2022/04/10 21:08:39;;;;;;;9.27;7.20;;;6.70;99.90;;;;;;5040981;28;20249;-83
2022/04/10 21:11:09;;;;;;;12.65;6.10;;;6.80;99.90;;;;;;5039520;28;20302;-84
2022/04/10 21:13:41;;;;;;;10.98;6.60;;;6.60;99.90;;;;;;5039235;28;20206;-84
2022/04/10 21:16:20;;;;;;;10.05;5.60;;;6.40;99.90;;;;;;5038775;28;20191;-83
2022/04/10 21:18:48;;;;;;;10.57;6.85;;;6.40;99.90;;;;;;5042032;28;20257;-83
2022/04/10 21:21:24;;;;;;;12.73;6.65;;;6.00;99.90;;;;;;5044888;28;20209;-84